sensor_id;sensor_type;location;lat;lon;timestamp;P1;P2;P0
55043;PMS5003;54902;50.420;18.854;2022-12-10T00:00:15;15;15;10
55043;PMS5003;54902;50.420;18.854;2022-12-10T00:00:47;15;15;10
55043;PMS5003;54902;50.420;18.854;2022-12-10T00:01:18;15;15;10
55043;PMS5003;54902;50.420;18.854;2022-12-10T00:01:50;21;21;12
55043;PMS5003;54902;50.420;18.854;2022-12-10T00:02:22;21;21;12
55043;PMS5003;54902;50.420;18.854;2022-12-10T00:02:53;21;21;12
55043;PMS5003;54902;50.420;18.854;2022-12-10T00:03:26;21;21;12
55043;PMS5003;54902;50.420;18.854;2022-12-10T00:03:57;21;21;12
55043;PMS5003;54902;50.420;18.854;2022-12-10T00:04:32;21;21;12
55043;PMS5003;54902;50.420;18.854;2022-12-10T00:05:04;21;21;12
55043;PMS5003;54902;50.420;18.854;2022-12-10T00:05:35;37;36;19
55043;PMS5003;54902;50.420;18.854;2022-12-10T00:06:07;37;36;19
55043;PMS5003;54902;50.420;18.854;2022-12-10T00:06:41;32;28;15
55043;PMS5003;54902;50.420;18.854;2022-12-10T00:07:13;32;28;15
55043;PMS5003;54902;50.420;18.854;2022-12-10T00:07:44;32;28;15
55043;PMS5003;54902;50.420;18.854;2022-12-10T00:08:15;32;28;15
55043;PMS5003;54902;50.420;18.854;2022-12-10T00:08:46;32;28;15
55043;PMS5003;54902;50.420;18.854;2022-12-10T00:09:18;32;28;15
55043;PMS5003;54902;50.420;18.854;2022-12-10T00:09:50;32;28;15
55043;PMS5003;54902;50.420;18.854;2022-12-10T00:10:21;32;28;15
55043;PMS5003;54902;50.420;18.854;2022-12-10T00:10:52;41;38;21
55043;PMS5003;54902;50.420;18.854;2022-12-10T00:11:23;41;38;21
55043;PMS5003;54902;50.420;18.854;2022-12-10T00:11:54;41;38;21
55043;PMS5003;54902;50.420;18.854;2022-12-10T00:12:26;41;38;21
55043;PMS5003;54902;50.420;18.854;2022-12-10T00:12:57;41;38;21
55043;PMS5003;54902;50.420;18.854;2022-12-10T00:13:28;41;38;21
55043;PMS5003;54902;50.420;18.854;2022-12-10T00:13:59;41;38;21
55043;PMS5003;54902;50.420;18.854;2022-12-10T00:14:30;41;38;21
55043;PMS5003;54902;50.420;18.854;2022-12-10T00:15:01;41;38;21
55043;PMS5003;54902;50.420;18.854;2022-12-10T00:15:35;41;38;21
55043;PMS5003;54902;50.420;18.854;2022-12-10T00:16:07;43;40;22
55043;PMS5003;54902;50.420;18.854;2022-12-10T00:16:41;43;40;22
55043;PMS5003;54902;50.420;18.854;2022-12-10T00:17:12;43;40;22
55043;PMS5003;54902;50.420;18.854;2022-12-10T00:17:43;43;40;22
55043;PMS5003;54902;50.420;18.854;2022-12-10T00:18:14;43;40;22
55043;PMS5003;54902;50.420;18.854;2022-12-10T00:18:45;43;40;22
55043;PMS5003;54902;50.420;18.854;2022-12-10T00:19:17;43;40;22
55043;PMS5003;54902;50.420;18.854;2022-12-10T00:19:48;43;40;22
55043;PMS5003;54902;50.420;18.854;2022-12-10T00:20:19;43;40;22
55043;PMS5003;54902;50.420;18.854;2022-12-10T00:20:50;43;40;22
55043;PMS5003;54902;50.420;18.854;2022-12-10T00:21:22;43;40;22
55043;PMS5003;54902;50.420;18.854;2022-12-10T00:21:55;43;40;22
55043;PMS5003;54902;50.420;18.854;2022-12-10T00:22:26;43;40;22
55043;PMS5003;54902;50.420;18.854;2022-12-10T00:22:57;43;40;22
55043;PMS5003;54902;50.420;18.854;2022-12-10T00:23:28;43;40;22
55043;PMS5003;54902;50.420;18.854;2022-12-10T00:24:03;43;40;22
55043;PMS5003;54902;50.420;18.854;2022-12-10T00:24:35;43;40;22
55043;PMS5003;54902;50.420;18.854;2022-12-10T00:25:06;43;40;22
55043;PMS5003;54902;50.420;18.854;2022-12-10T00:25:38;43;40;22
55043;PMS5003;54902;50.420;18.854;2022-12-10T00:26:12;43;40;22
55043;PMS5003;54902;50.420;18.854;2022-12-10T00:26:48;43;40;22
55043;PMS5003;54902;50.420;18.854;2022-12-10T00:27:19;43;40;22
55043;PMS5003;54902;50.420;18.854;2022-12-10T00:27:50;43;40;22
55043;PMS5003;54902;50.420;18.854;2022-12-10T00:28:21;43;40;22
55043;PMS5003;54902;50.420;18.854;2022-12-10T00:28:52;43;40;22
55043;PMS5003;54902;50.420;18.854;2022-12-10T00:29:24;29;28;16
55043;PMS5003;54902;50.420;18.854;2022-12-10T00:29:55;29;28;16
55043;PMS5003;54902;50.420;18.854;2022-12-10T00:30:26;29;28;16
55043;PMS5003;54902;50.420;18.854;2022-12-10T00:31:01;29;28;16
55043;PMS5003;54902;50.420;18.854;2022-12-10T00:31:38;29;28;16
55043;PMS5003;54902;50.420;18.854;2022-12-10T00:32:09;23;23;16
55043;PMS5003;54902;50.420;18.854;2022-12-10T00:32:40;23;23;16
55043;PMS5003;54902;50.420;18.854;2022-12-10T00:33:11;23;23;16
55043;PMS5003;54902;50.420;18.854;2022-12-10T00:33:42;23;23;16
55043;PMS5003;54902;50.420;18.854;2022-12-10T00:34:15;23;23;16
55043;PMS5003;54902;50.420;18.854;2022-12-10T00:34:46;23;23;16
55043;PMS5003;54902;50.420;18.854;2022-12-10T00:35:17;23;23;16
55043;PMS5003;54902;50.420;18.854;2022-12-10T00:35:48;23;23;16
55043;PMS5003;54902;50.420;18.854;2022-12-10T00:36:20;23;23;16
55043;PMS5003;54902;50.420;18.854;2022-12-10T00:36:52;23;23;16
55043;PMS5003;54902;50.420;18.854;2022-12-10T00:37:23;28;28;19
55043;PMS5003;54902;50.420;18.854;2022-12-10T00:37:54;28;28;19
55043;PMS5003;54902;50.420;18.854;2022-12-10T00:38:25;28;28;19
55043;PMS5003;54902;50.420;18.854;2022-12-10T00:38:56;28;28;19
55043;PMS5003;54902;50.420;18.854;2022-12-10T00:39:27;28;28;19
55043;PMS5003;54902;50.420;18.854;2022-12-10T00:39:59;28;28;19
55043;PMS5003;54902;50.420;18.854;2022-12-10T00:40:30;28;28;19
55043;PMS5003;54902;50.420;18.854;2022-12-10T00:41:01;28;28;19
55043;PMS5003;54902;50.420;18.854;2022-12-10T00:41:32;28;28;19
55043;PMS5003;54902;50.420;18.854;2022-12-10T00:42:04;28;28;19
55043;PMS5003;54902;50.420;18.854;2022-12-10T00:42:35;28;28;19
55043;PMS5003;54902;50.420;18.854;2022-12-10T00:43:05;28;28;19
55043;PMS5003;54902;50.420;18.854;2022-12-10T00:43:36;28;28;19
55043;PMS5003;54902;50.420;18.854;2022-12-10T00:44:07;20;20;13
55043;PMS5003;54902;50.420;18.854;2022-12-10T00:44:39;20;20;13
55043;PMS5003;54902;50.420;18.854;2022-12-10T00:45:10;20;20;13
55043;PMS5003;54902;50.420;18.854;2022-12-10T00:45:41;20;20;13
55043;PMS5003;54902;50.420;18.854;2022-12-10T00:46:12;20;20;13
55043;PMS5003;54902;50.420;18.854;2022-12-10T00:46:44;20;20;13
55043;PMS5003;54902;50.420;18.854;2022-12-10T00:47:15;20;20;13
55043;PMS5003;54902;50.420;18.854;2022-12-10T00:47:46;31;30;17
55043;PMS5003;54902;50.420;18.854;2022-12-10T00:48:17;31;30;17
55043;PMS5003;54902;50.420;18.854;2022-12-10T00:48:49;31;30;17
55043;PMS5003;54902;50.420;18.854;2022-12-10T00:49:20;26;23;14
55043;PMS5003;54902;50.420;18.854;2022-12-10T00:49:54;26;23;14
55043;PMS5003;54902;50.420;18.854;2022-12-10T00:50:25;26;23;14
55043;PMS5003;54902;50.420;18.854;2022-12-10T00:51:00;26;23;14
55043;PMS5003;54902;50.420;18.854;2022-12-10T00:51:33;26;23;14
55043;PMS5003;54902;50.420;18.854;2022-12-10T00:52:04;31;28;17
55043;PMS5003;54902;50.420;18.854;2022-12-10T00:52:35;31;28;17
55043;PMS5003;54902;50.420;18.854;2022-12-10T00:53:06;21;18;12
55043;PMS5003;54902;50.420;18.854;2022-12-10T00:53:37;21;18;12
55043;PMS5003;54902;50.420;18.854;2022-12-10T00:54:09;21;18;12
55043;PMS5003;54902;50.420;18.854;2022-12-10T00:54:41;21;18;12
55043;PMS5003;54902;50.420;18.854;2022-12-10T00:55:12;21;18;12
55043;PMS5003;54902;50.420;18.854;2022-12-10T00:55:43;21;18;12
55043;PMS5003;54902;50.420;18.854;2022-12-10T00:56:15;21;18;12
55043;PMS5003;54902;50.420;18.854;2022-12-10T00:56:47;21;18;12
55043;PMS5003;54902;50.420;18.854;2022-12-10T00:57:19;21;18;12
55043;PMS5003;54902;50.420;18.854;2022-12-10T00:57:50;21;18;12
55043;PMS5003;54902;50.420;18.854;2022-12-10T00:58:21;12;12;8
55043;PMS5003;54902;50.420;18.854;2022-12-10T00:58:52;12;12;8
55043;PMS5003;54902;50.420;18.854;2022-12-10T00:59:24;12;12;8
55043;PMS5003;54902;50.420;18.854;2022-12-10T00:59:55;12;12;8
55043;PMS5003;54902;50.420;18.854;2022-12-10T01:00:25;12;12;8
55043;PMS5003;54902;50.420;18.854;2022-12-10T01:01:41;17;16;10
55043;PMS5003;54902;50.420;18.854;2022-12-10T01:02:13;17;16;10
55043;PMS5003;54902;50.420;18.854;2022-12-10T01:02:44;17;16;10
55043;PMS5003;54902;50.420;18.854;2022-12-10T01:03:15;17;16;10
55043;PMS5003;54902;50.420;18.854;2022-12-10T01:03:47;18;17;10
55043;PMS5003;54902;50.420;18.854;2022-12-10T01:04:19;18;17;10
55043;PMS5003;54902;50.420;18.854;2022-12-10T01:04:53;18;17;10
55043;PMS5003;54902;50.420;18.854;2022-12-10T01:05:24;18;17;10
55043;PMS5003;54902;50.420;18.854;2022-12-10T01:05:55;18;17;10
55043;PMS5003;54902;50.420;18.854;2022-12-10T01:06:27;18;17;10
55043;PMS5003;54902;50.420;18.854;2022-12-10T01:07:00;18;17;10
55043;PMS5003;54902;50.420;18.854;2022-12-10T01:07:31;18;17;10
55043;PMS5003;54902;50.420;18.854;2022-12-10T01:08:02;18;17;10
55043;PMS5003;54902;50.420;18.854;2022-12-10T01:08:33;18;17;10
55043;PMS5003;54902;50.420;18.854;2022-12-10T01:09:05;22;22;12
55043;PMS5003;54902;50.420;18.854;2022-12-10T01:09:38;22;22;12
55043;PMS5003;54902;50.420;18.854;2022-12-10T01:10:09;22;22;12
55043;PMS5003;54902;50.420;18.854;2022-12-10T01:10:40;22;22;12
55043;PMS5003;54902;50.420;18.854;2022-12-10T01:11:12;22;22;12
55043;PMS5003;54902;50.420;18.854;2022-12-10T01:11:45;22;22;12
55043;PMS5003;54902;50.420;18.854;2022-12-10T01:12:17;22;22;12
55043;PMS5003;54902;50.420;18.854;2022-12-10T01:12:48;22;22;12
55043;PMS5003;54902;50.420;18.854;2022-12-10T01:13:19;22;22;12
55043;PMS5003;54902;50.420;18.854;2022-12-10T01:13:51;22;22;12
55043;PMS5003;54902;50.420;18.854;2022-12-10T01:14:23;22;22;12
55043;PMS5003;54902;50.420;18.854;2022-12-10T01:14:56;22;22;12
55043;PMS5003;54902;50.420;18.854;2022-12-10T01:15:27;22;22;12
55043;PMS5003;54902;50.420;18.854;2022-12-10T01:16:01;22;22;12
55043;PMS5003;54902;50.420;18.854;2022-12-10T01:16:33;22;22;12
55043;PMS5003;54902;50.420;18.854;2022-12-10T01:17:05;22;22;12
55043;PMS5003;54902;50.420;18.854;2022-12-10T01:17:36;22;22;12
55043;PMS5003;54902;50.420;18.854;2022-12-10T01:18:07;22;22;12
55043;PMS5003;54902;50.420;18.854;2022-12-10T01:18:38;22;22;12
55043;PMS5003;54902;50.420;18.854;2022-12-10T01:19:10;22;22;12
55043;PMS5003;54902;50.420;18.854;2022-12-10T01:19:42;22;22;12
55043;PMS5003;54902;50.420;18.854;2022-12-10T01:20:13;22;22;12
55043;PMS5003;54902;50.420;18.854;2022-12-10T01:20:44;22;22;12
55043;PMS5003;54902;50.420;18.854;2022-12-10T01:21:16;22;22;12
55043;PMS5003;54902;50.420;18.854;2022-12-10T01:21:49;22;22;12
55043;PMS5003;54902;50.420;18.854;2022-12-10T01:22:21;22;22;12
55043;PMS5003;54902;50.420;18.854;2022-12-10T01:22:52;22;22;12
55043;PMS5003;54902;50.420;18.854;2022-12-10T01:23:23;22;22;12
55043;PMS5003;54902;50.420;18.854;2022-12-10T01:23:55;22;22;12
55043;PMS5003;54902;50.420;18.854;2022-12-10T01:24:28;20;20;11
55043;PMS5003;54902;50.420;18.854;2022-12-10T01:24:59;19;17;13
55043;PMS5003;54902;50.420;18.854;2022-12-10T01:25:30;19;17;13
55043;PMS5003;54902;50.420;18.854;2022-12-10T01:26:02;19;17;13
55043;PMS5003;54902;50.420;18.854;2022-12-10T01:26:35;19;17;13
55043;PMS5003;54902;50.420;18.854;2022-12-10T01:27:06;19;17;13
55043;PMS5003;54902;50.420;18.854;2022-12-10T01:27:37;19;17;13
55043;PMS5003;54902;50.420;18.854;2022-12-10T01:28:08;19;17;13
55043;PMS5003;54902;50.420;18.854;2022-12-10T01:28:40;19;17;13
55043;PMS5003;54902;50.420;18.854;2022-12-10T01:29:12;19;17;13
55043;PMS5003;54902;50.420;18.854;2022-12-10T01:29:43;19;17;13
55043;PMS5003;54902;50.420;18.854;2022-12-10T01:30:14;30;28;19
55043;PMS5003;54902;50.420;18.854;2022-12-10T01:30:45;30;28;19
55043;PMS5003;54902;50.420;18.854;2022-12-10T01:31:21;30;28;19
55043;PMS5003;54902;50.420;18.854;2022-12-10T01:31:57;30;28;19
55043;PMS5003;54902;50.420;18.854;2022-12-10T01:32:28;30;28;19
55043;PMS5003;54902;50.420;18.854;2022-12-10T01:32:59;30;28;19
55043;PMS5003;54902;50.420;18.854;2022-12-10T01:33:30;30;28;19
55043;PMS5003;54902;50.420;18.854;2022-12-10T01:34:03;30;28;19
55043;PMS5003;54902;50.420;18.854;2022-12-10T01:34:35;30;28;19
55043;PMS5003;54902;50.420;18.854;2022-12-10T01:35:06;30;28;19
55043;PMS5003;54902;50.420;18.854;2022-12-10T01:35:38;30;28;19
55043;PMS5003;54902;50.420;18.854;2022-12-10T01:36:16;30;28;19
55043;PMS5003;54902;50.420;18.854;2022-12-10T01:36:52;30;28;19
55043;PMS5003;54902;50.420;18.854;2022-12-10T01:37:24;30;28;19
55043;PMS5003;54902;50.420;18.854;2022-12-10T01:37:55;30;28;19
55043;PMS5003;54902;50.420;18.854;2022-12-10T01:38:26;30;28;19
55043;PMS5003;54902;50.420;18.854;2022-12-10T01:38:57;30;28;19
55043;PMS5003;54902;50.420;18.854;2022-12-10T01:39:29;30;28;19
55043;PMS5003;54902;50.420;18.854;2022-12-10T01:40:00;30;28;19
55043;PMS5003;54902;50.420;18.854;2022-12-10T01:40:36;30;28;19
55043;PMS5003;54902;50.420;18.854;2022-12-10T01:41:13;30;28;19
55043;PMS5003;54902;50.420;18.854;2022-12-10T01:41:47;30;28;19
55043;PMS5003;54902;50.420;18.854;2022-12-10T01:42:20;30;28;19
55043;PMS5003;54902;50.420;18.854;2022-12-10T01:42:51;17;14;8
55043;PMS5003;54902;50.420;18.854;2022-12-10T01:43:22;17;14;8
55043;PMS5003;54902;50.420;18.854;2022-12-10T01:43:57;17;14;8
55043;PMS5003;54902;50.420;18.854;2022-12-10T01:45:16;17;14;8
55043;PMS5003;54902;50.420;18.854;2022-12-10T01:45:48;17;14;8
55043;PMS5003;54902;50.420;18.854;2022-12-10T01:46:20;17;14;8
55043;PMS5003;54902;50.420;18.854;2022-12-10T01:46:55;22;19;9
55043;PMS5003;54902;50.420;18.854;2022-12-10T01:47:28;22;19;9
55043;PMS5003;54902;50.420;18.854;2022-12-10T01:47:59;22;19;9
55043;PMS5003;54902;50.420;18.854;2022-12-10T01:48:30;22;19;9
55043;PMS5003;54902;50.420;18.854;2022-12-10T01:49:02;22;19;9
55043;PMS5003;54902;50.420;18.854;2022-12-10T01:49:37;22;19;9
55043;PMS5003;54902;50.420;18.854;2022-12-10T01:50:10;22;19;9
55043;PMS5003;54902;50.420;18.854;2022-12-10T01:50:41;22;19;9
55043;PMS5003;54902;50.420;18.854;2022-12-10T01:51:12;22;19;9
55043;PMS5003;54902;50.420;18.854;2022-12-10T01:51:45;22;19;9
55043;PMS5003;54902;50.420;18.854;2022-12-10T01:52:19;24;21;10
55043;PMS5003;54902;50.420;18.854;2022-12-10T01:52:51;24;21;10
55043;PMS5003;54902;50.420;18.854;2022-12-10T01:53:22;24;21;10
55043;PMS5003;54902;50.420;18.854;2022-12-10T01:53:53;24;21;10
55043;PMS5003;54902;50.420;18.854;2022-12-10T01:54:26;24;21;10
55043;PMS5003;54902;50.420;18.854;2022-12-10T01:55:05;24;21;10
55043;PMS5003;54902;50.420;18.854;2022-12-10T01:56:19;24;21;10
55043;PMS5003;54902;50.420;18.854;2022-12-10T01:56:54;24;21;10
55043;PMS5003;54902;50.420;18.854;2022-12-10T01:57:34;24;21;10
55043;PMS5003;54902;50.420;18.854;2022-12-10T01:58:06;24;21;10
55043;PMS5003;54902;50.420;18.854;2022-12-10T01:58:37;24;21;10
55043;PMS5003;54902;50.420;18.854;2022-12-10T01:59:09;24;21;10
55043;PMS5003;54902;50.420;18.854;2022-12-10T01:59:45;24;21;10
55043;PMS5003;54902;50.420;18.854;2022-12-10T02:00:18;24;21;10
55043;PMS5003;54902;50.420;18.854;2022-12-10T02:01:32;24;21;10
55043;PMS5003;54902;50.420;18.854;2022-12-10T02:01:37;24;21;10
55043;PMS5003;54902;50.420;18.854;2022-12-10T02:03:01;24;21;10
55043;PMS5003;54902;50.420;18.854;2022-12-10T02:05:08;24;21;10
55043;PMS5003;54902;50.420;18.854;2022-12-10T02:05:52;24;21;10
55043;PMS5003;54902;50.420;18.854;2022-12-10T02:07:21;24;21;10
55043;PMS5003;54902;50.420;18.854;2022-12-10T02:08:44;24;21;10
55043;PMS5003;54902;50.420;18.854;2022-12-10T02:10:58;24;21;10
55043;PMS5003;54902;50.420;18.854;2022-12-10T02:12:21;24;21;10
55043;PMS5003;54902;50.420;18.854;2022-12-10T02:13:04;24;21;10
55043;PMS5003;54902;50.420;18.854;2022-12-10T02:13:41;24;21;10
55043;PMS5003;54902;50.420;18.854;2022-12-10T02:14:23;24;21;10
55043;PMS5003;54902;50.420;18.854;2022-12-10T02:15:27;24;21;10
55043;PMS5003;54902;50.420;18.854;2022-12-10T02:15:51;24;21;10
55043;PMS5003;54902;50.420;18.854;2022-12-10T02:16:31;24;21;10
55043;PMS5003;54902;50.420;18.854;2022-12-10T02:17:20;24;21;10
55043;PMS5003;54902;50.420;18.854;2022-12-10T02:17:47;24;21;10
55043;PMS5003;54902;50.420;18.854;2022-12-10T02:19:09;24;21;10
55043;PMS5003;54902;50.420;18.854;2022-12-10T02:21:11;24;21;10
55043;PMS5003;54902;50.420;18.854;2022-12-10T02:21:47;24;21;10
55043;PMS5003;54902;50.420;18.854;2022-12-10T02:22:21;24;21;10
55043;PMS5003;54902;50.420;18.854;2022-12-10T02:23:39;24;21;10
55043;PMS5003;54902;50.420;18.854;2022-12-10T02:24:18;24;21;10
55043;PMS5003;54902;50.420;18.854;2022-12-10T02:24:55;24;21;10
55043;PMS5003;54902;50.420;18.854;2022-12-10T02:25:32;24;21;10
55043;PMS5003;54902;50.420;18.854;2022-12-10T02:27:44;17;15;9
55043;PMS5003;54902;50.420;18.854;2022-12-10T02:28:39;17;15;9
55043;PMS5003;54902;50.420;18.854;2022-12-10T02:29:48;17;15;9
55043;PMS5003;54902;50.420;18.854;2022-12-10T02:30:22;17;15;9
55043;PMS5003;54902;50.420;18.854;2022-12-10T02:30:53;17;15;9
55043;PMS5003;54902;50.420;18.854;2022-12-10T02:31:28;12;12;9
55043;PMS5003;54902;50.420;18.854;2022-12-10T02:32:05;12;12;9
55043;PMS5003;54902;50.420;18.854;2022-12-10T02:32:42;12;12;9
55043;PMS5003;54902;50.420;18.854;2022-12-10T02:33:14;12;12;9
55043;PMS5003;54902;50.420;18.854;2022-12-10T02:33:48;12;12;9
55043;PMS5003;54902;50.420;18.854;2022-12-10T02:34:24;12;12;9
55043;PMS5003;54902;50.420;18.854;2022-12-10T02:35:01;12;12;9
55043;PMS5003;54902;50.420;18.854;2022-12-10T02:35:37;12;12;9
55043;PMS5003;54902;50.420;18.854;2022-12-10T02:36:11;12;12;9
55043;PMS5003;54902;50.420;18.854;2022-12-10T02:36:46;12;12;9
55043;PMS5003;54902;50.420;18.854;2022-12-10T02:37:37;24;24;16
55043;PMS5003;54902;50.420;18.854;2022-12-10T02:38:20;24;24;16
55043;PMS5003;54902;50.420;18.854;2022-12-10T02:38:45;24;24;16
55043;PMS5003;54902;50.420;18.854;2022-12-10T02:39:23;24;24;16
55043;PMS5003;54902;50.420;18.854;2022-12-10T02:40:01;24;24;16
55043;PMS5003;54902;50.420;18.854;2022-12-10T02:40:37;24;24;16
55043;PMS5003;54902;50.420;18.854;2022-12-10T02:41:14;24;24;16
55043;PMS5003;54902;50.420;18.854;2022-12-10T02:41:51;21;21;14
55043;PMS5003;54902;50.420;18.854;2022-12-10T02:42:24;21;21;14
55043;PMS5003;54902;50.420;18.854;2022-12-10T02:42:59;21;21;14
55043;PMS5003;54902;50.420;18.854;2022-12-10T02:43:31;21;21;11
55043;PMS5003;54902;50.420;18.854;2022-12-10T02:44:05;16;16;9
55043;PMS5003;54902;50.420;18.854;2022-12-10T02:44:41;16;16;9
55043;PMS5003;54902;50.420;18.854;2022-12-10T02:45:14;16;16;9
55043;PMS5003;54902;50.420;18.854;2022-12-10T02:45:47;16;16;9
55043;PMS5003;54902;50.420;18.854;2022-12-10T02:46:21;16;16;9
55043;PMS5003;54902;50.420;18.854;2022-12-10T02:46:55;19;18;10
55043;PMS5003;54902;50.420;18.854;2022-12-10T02:47:28;19;18;10
55043;PMS5003;54902;50.420;18.854;2022-12-10T02:48:01;19;18;10
55043;PMS5003;54902;50.420;18.854;2022-12-10T02:48:34;19;18;10
55043;PMS5003;54902;50.420;18.854;2022-12-10T02:49:07;17;17;11
55043;PMS5003;54902;50.420;18.854;2022-12-10T02:49:42;17;17;11
55043;PMS5003;54902;50.420;18.854;2022-12-10T02:50:16;17;17;11
55043;PMS5003;54902;50.420;18.854;2022-12-10T02:50:50;14;14;8
55043;PMS5003;54902;50.420;18.854;2022-12-10T02:51:21;14;14;8
55043;PMS5003;54902;50.420;18.854;2022-12-10T02:51:52;14;14;8
55043;PMS5003;54902;50.420;18.854;2022-12-10T02:52:24;14;14;8
55043;PMS5003;54902;50.420;18.854;2022-12-10T02:52:55;14;14;8
55043;PMS5003;54902;50.420;18.854;2022-12-10T02:53:26;14;14;8
55043;PMS5003;54902;50.420;18.854;2022-12-10T02:53:58;14;14;8
55043;PMS5003;54902;50.420;18.854;2022-12-10T02:54:40;21;21;13
55043;PMS5003;54902;50.420;18.854;2022-12-10T02:55:14;21;21;13
55043;PMS5003;54902;50.420;18.854;2022-12-10T02:55:53;21;21;13
55043;PMS5003;54902;50.420;18.854;2022-12-10T02:57:15;21;21;13
55043;PMS5003;54902;50.420;18.854;2022-12-10T02:58:43;21;21;13
55043;PMS5003;54902;50.420;18.854;2022-12-10T03:01:37;24;24;15
55043;PMS5003;54902;50.420;18.854;2022-12-10T03:02:15;24;24;15
55043;PMS5003;54902;50.420;18.854;2022-12-10T03:03:40;24;24;15
55043;PMS5003;54902;50.420;18.854;2022-12-10T03:04:17;24;24;15
55043;PMS5003;54902;50.420;18.854;2022-12-10T03:07:07;24;24;15
55043;PMS5003;54902;50.420;18.854;2022-12-10T03:07:10;24;24;15
55043;PMS5003;54902;50.420;18.854;2022-12-10T03:07:55;24;24;15
55043;PMS5003;54902;50.420;18.854;2022-12-10T03:08:38;24;24;15
55043;PMS5003;54902;50.420;18.854;2022-12-10T03:09:19;24;24;15
55043;PMS5003;54902;50.420;18.854;2022-12-10T03:09:58;24;24;15
55043;PMS5003;54902;50.420;18.854;2022-12-10T03:11:22;24;24;15
55043;PMS5003;54902;50.420;18.854;2022-12-10T03:12:17;24;24;15
55043;PMS5003;54902;50.420;18.854;2022-12-10T03:12:42;24;24;15
55043;PMS5003;54902;50.420;18.854;2022-12-10T03:13:21;24;24;15
55043;PMS5003;54902;50.420;18.854;2022-12-10T03:14:39;24;24;15
55043;PMS5003;54902;50.420;18.854;2022-12-10T03:15:11;20;18;12
55043;PMS5003;54902;50.420;18.854;2022-12-10T03:15:44;20;18;12
55043;PMS5003;54902;50.420;18.854;2022-12-10T03:16:18;20;18;12
55043;PMS5003;54902;50.420;18.854;2022-12-10T03:16:54;20;18;12
55043;PMS5003;54902;50.420;18.854;2022-12-10T03:17:28;20;18;12
55043;PMS5003;54902;50.420;18.854;2022-12-10T03:18:02;20;18;12
55043;PMS5003;54902;50.420;18.854;2022-12-10T03:18:36;20;18;12
55043;PMS5003;54902;50.420;18.854;2022-12-10T03:19:10;34;32;18
55043;PMS5003;54902;50.420;18.854;2022-12-10T03:19:45;34;32;18
55043;PMS5003;54902;50.420;18.854;2022-12-10T03:20:20;34;32;18
55043;PMS5003;54902;50.420;18.854;2022-12-10T03:20:54;38;36;23
55043;PMS5003;54902;50.420;18.854;2022-12-10T03:21:32;38;36;23
55043;PMS5003;54902;50.420;18.854;2022-12-10T03:22:07;38;36;23
55043;PMS5003;54902;50.420;18.854;2022-12-10T03:22:40;38;36;23
55043;PMS5003;54902;50.420;18.854;2022-12-10T03:23:16;38;36;23
55043;PMS5003;54902;50.420;18.854;2022-12-10T03:23:49;38;36;23
55043;PMS5003;54902;50.420;18.854;2022-12-10T03:24:21;38;36;23
55043;PMS5003;54902;50.420;18.854;2022-12-10T03:24:55;38;36;23
55043;PMS5003;54902;50.420;18.854;2022-12-10T03:25:29;38;36;23
55043;PMS5003;54902;50.420;18.854;2022-12-10T03:26:01;38;36;23
55043;PMS5003;54902;50.420;18.854;2022-12-10T03:26:34;52;48;30
55043;PMS5003;54902;50.420;18.854;2022-12-10T03:27:06;52;48;30
55043;PMS5003;54902;50.420;18.854;2022-12-10T03:27:39;52;48;30
55043;PMS5003;54902;50.420;18.854;2022-12-10T03:28:12;26;25;15
55043;PMS5003;54902;50.420;18.854;2022-12-10T03:28:51;26;25;15
55043;PMS5003;54902;50.420;18.854;2022-12-10T03:29:28;26;25;15
55043;PMS5003;54902;50.420;18.854;2022-12-10T03:30:05;26;25;15
55043;PMS5003;54902;50.420;18.854;2022-12-10T03:30:37;26;25;15
55043;PMS5003;54902;50.420;18.854;2022-12-10T03:31:11;26;25;15
55043;PMS5003;54902;50.420;18.854;2022-12-10T03:31:44;26;25;15
55043;PMS5003;54902;50.420;18.854;2022-12-10T03:32:18;26;25;14
55043;PMS5003;54902;50.420;18.854;2022-12-10T03:32:52;26;25;14
55043;PMS5003;54902;50.420;18.854;2022-12-10T03:33:23;26;25;14
55043;PMS5003;54902;50.420;18.854;2022-12-10T03:33:55;26;25;14
55043;PMS5003;54902;50.420;18.854;2022-12-10T03:34:26;26;25;14
55043;PMS5003;54902;50.420;18.854;2022-12-10T03:34:58;26;25;14
55043;PMS5003;54902;50.420;18.854;2022-12-10T03:35:32;26;25;14
55043;PMS5003;54902;50.420;18.854;2022-12-10T03:36:04;26;25;14
55043;PMS5003;54902;50.420;18.854;2022-12-10T03:36:37;26;25;14
55043;PMS5003;54902;50.420;18.854;2022-12-10T03:37:09;26;25;14
55043;PMS5003;54902;50.420;18.854;2022-12-10T03:37:42;28;27;15
55043;PMS5003;54902;50.420;18.854;2022-12-10T03:38:13;28;27;15
55043;PMS5003;54902;50.420;18.854;2022-12-10T03:38:45;28;27;15
55043;PMS5003;54902;50.420;18.854;2022-12-10T03:39:16;28;27;15
55043;PMS5003;54902;50.420;18.854;2022-12-10T03:39:48;28;27;15
55043;PMS5003;54902;50.420;18.854;2022-12-10T03:40:21;28;27;15
55043;PMS5003;54902;50.420;18.854;2022-12-10T03:40:54;28;27;15
55043;PMS5003;54902;50.420;18.854;2022-12-10T03:41:25;28;27;15
55043;PMS5003;54902;50.420;18.854;2022-12-10T03:41:56;28;27;15
55043;PMS5003;54902;50.420;18.854;2022-12-10T03:42:27;28;27;15
55043;PMS5003;54902;50.420;18.854;2022-12-10T03:42:58;28;27;15
55043;PMS5003;54902;50.420;18.854;2022-12-10T03:43:29;28;27;15
55043;PMS5003;54902;50.420;18.854;2022-12-10T03:44:00;28;27;15
55043;PMS5003;54902;50.420;18.854;2022-12-10T03:44:31;28;27;15
55043;PMS5003;54902;50.420;18.854;2022-12-10T03:45:04;28;27;15
55043;PMS5003;54902;50.420;18.854;2022-12-10T03:45:35;28;27;15
55043;PMS5003;54902;50.420;18.854;2022-12-10T03:46:06;28;27;15
55043;PMS5003;54902;50.420;18.854;2022-12-10T03:46:37;28;27;15
55043;PMS5003;54902;50.420;18.854;2022-12-10T03:47:10;28;27;15
55043;PMS5003;54902;50.420;18.854;2022-12-10T03:47:44;28;27;15
55043;PMS5003;54902;50.420;18.854;2022-12-10T03:48:16;28;27;15
55043;PMS5003;54902;50.420;18.854;2022-12-10T03:48:47;28;27;15
55043;PMS5003;54902;50.420;18.854;2022-12-10T03:49:18;28;27;15
55043;PMS5003;54902;50.420;18.854;2022-12-10T03:49:49;21;21;12
55043;PMS5003;54902;50.420;18.854;2022-12-10T03:50:20;21;21;12
55043;PMS5003;54902;50.420;18.854;2022-12-10T03:50:51;21;21;12
55043;PMS5003;54902;50.420;18.854;2022-12-10T03:51:21;21;21;12
55043;PMS5003;54902;50.420;18.854;2022-12-10T03:51:53;21;21;12